This is the latest recevied weather packets stored in our database for station/object OK2ZA-6. If no packets are shown the sender has not sent any weather packets the latest 10 day(s).
| Time | Temp. | Humidity | Pressure | Rain* | Wind** | Luminosity | Snow |
|---|---|---|---|---|---|---|---|
| 1777789203 | 12.78° C | 57% | 1019 hPa | 0 mm | - | - | - |
| 1777788603 | 12.78° C | 59% | 1018.9 hPa | 0 mm | - | - | - |
| 1777788004 | 12.78° C | 59% | 1018.8 hPa | 0 mm | - | - | - |
| 1777787403 | 12.22° C | 59% | 1018.7 hPa | 0 mm | - | - | - |
| 1777786803 | 12.22° C | 60% | 1018.6 hPa | 0 mm | - | - | - |
| 1777786203 | 11.67° C | 61% | 1018.5 hPa | 0 mm | - | - | - |
| 1777785603 | 11.67° C | 61% | 1018.5 hPa | 0 mm | - | - | - |
| 1777785003 | 11.11° C | 62% | 1018.5 hPa | 0 mm | - | - | - |
| 1777784403 | 11.11° C | 62% | 1018.4 hPa | 0 mm | - | - | - |
| 1777783803 | 11.11° C | 63% | 1018.4 hPa | 0 mm | - | - | - |
| 1777783203 | 10.56° C | 63% | 1018.4 hPa | 0 mm | - | - | - |
| 1777782603 | 10.56° C | 63% | 1018.4 hPa | 0 mm | - | - | - |
| 1777782003 | 10.56° C | 63% | 1018.5 hPa | 0 mm | - | - | - |
| 1777781403 | 10.56° C | 63% | 1018.4 hPa | 0 mm | - | - | - |
| 1777780804 | 10.56° C | 63% | 1018.3 hPa | 0 mm | - | - | - |
| 1777780203 | 10.56° C | 63% | 1018.4 hPa | 0 mm | - | - | - |
| 1777779603 | 10.56° C | 63% | 1018.4 hPa | 0 mm | - | - | - |
| 1777779003 | 10.56° C | 62% | 1018.4 hPa | 0 mm | - | - | - |
| 1777778404 | 10.56° C | 60% | 1018.3 hPa | 0 mm | - | - | - |
| 1777777803 | 11.11° C | 57% | 1018.3 hPa | 0 mm | - | - | - |
| 1777777204 | 11.67° C | 55% | 1018.2 hPa | 0 mm | - | - | - |
| 1777776604 | 12.22° C | 53% | 1018.2 hPa | 0 mm | - | - | - |
| 1777776003 | 12.22° C | 52% | 1018.3 hPa | 0 mm | - | - | - |
| 1777775403 | 12.78° C | 51% | 1018.4 hPa | 0 mm | - | - | - |
| 1777774804 | 12.78° C | 51% | 1018.4 hPa | 0 mm | - | - | - |
* Rain latest hour (hover to see other rain measurements)
** Current wind speed in m/s (hover to see current wind gust speed)